sensor_id;sensor_type;location;lat;lon;timestamp;pressure;altitude;pressure_sealevel;temperature;humidity
13314;BME280;6725;48.112;11.604;2023-04-21T00:02:11;94467.81;;;7.50;100.00
13314;BME280;6725;48.112;11.604;2023-04-21T00:04:40;94460.03;;;7.52;100.00
13314;BME280;6725;48.112;11.604;2023-04-21T00:07:05;94449.13;;;7.56;100.00
13314;BME280;6725;48.112;11.604;2023-04-21T00:09:31;94450.69;;;7.57;100.00
13314;BME280;6725;48.112;11.604;2023-04-21T00:11:56;94442.16;;;7.55;100.00
13314;BME280;6725;48.112;11.604;2023-04-21T00:14:21;94445.25;;;7.57;100.00
13314;BME280;6725;48.112;11.604;2023-04-21T00:16:47;94439.75;;;7.60;100.00
13314;BME280;6725;48.112;11.604;2023-04-21T00:19:17;94441.28;;;7.61;100.00
13314;BME280;6725;48.112;11.604;2023-04-21T00:21:42;94445.19;;;7.60;100.00
13314;BME280;6725;48.112;11.604;2023-04-21T00:24:08;94436.66;;;7.62;100.00
13314;BME280;6725;48.112;11.604;2023-04-21T00:26:33;94455.59;;;7.65;100.00
13314;BME280;6725;48.112;11.604;2023-04-21T00:28:58;94457.41;;;7.75;100.00
13314;BME280;6725;48.112;11.604;2023-04-21T00:31:24;94462.03;;;7.78;100.00
13314;BME280;6725;48.112;11.604;2023-04-21T00:33:49;94469.47;;;7.74;100.00
13314;BME280;6725;48.112;11.604;2023-04-21T00:36:15;94470.75;;;7.66;100.00
13314;BME280;6725;48.112;11.604;2023-04-21T00:38:40;94460.63;;;7.67;100.00
13314;BME280;6725;48.112;11.604;2023-04-21T00:41:05;94454.78;;;7.68;100.00
13314;BME280;6725;48.112;11.604;2023-04-21T00:43:31;94457.50;;;7.68;100.00
13314;BME280;6725;48.112;11.604;2023-04-21T00:45:56;94457.50;;;7.68;100.00
13314;BME280;6725;48.112;11.604;2023-04-21T00:48:22;94445.09;;;7.67;100.00
13314;BME280;6725;48.112;11.604;2023-04-21T00:50:47;94446.66;;;7.68;100.00
13314;BME280;6725;48.112;11.604;2023-04-21T00:53:14;94447.44;;;7.65;100.00
13314;BME280;6725;48.112;11.604;2023-04-21T00:55:39;94450.13;;;7.69;100.00
13314;BME280;6725;48.112;11.604;2023-04-21T00:58:05;94450.53;;;7.67;100.00
13314;BME280;6725;48.112;11.604;2023-04-21T01:00:31;94451.72;;;7.66;100.00
13314;BME280;6725;48.112;11.604;2023-04-21T01:02:56;94440.81;;;7.70;100.00
13314;BME280;6725;48.112;11.604;2023-04-21T01:05:23;94425.69;;;7.69;100.00
13314;BME280;6725;48.112;11.604;2023-04-21T01:07:49;94434.63;;;7.69;100.00
13314;BME280;6725;48.112;11.604;2023-04-21T01:10:14;94446.56;;;7.75;100.00
13314;BME280;6725;48.112;11.604;2023-04-21T01:12:44;94437.22;;;7.76;100.00
13314;BME280;6725;48.112;11.604;2023-04-21T01:15:15;94436.41;;;7.79;100.00
13314;BME280;6725;48.112;11.604;2023-04-21T01:17:41;94436.41;;;7.79;100.00
13314;BME280;6725;48.112;11.604;2023-04-21T01:20:12;94441.03;;;7.82;100.00
13314;BME280;6725;48.112;11.604;2023-04-21T01:22:38;94442.56;;;7.83;100.00
13314;BME280;6725;48.112;11.604;2023-04-21T01:25:04;94454.22;;;7.84;100.00
13314;BME280;6725;48.112;11.604;2023-04-21T01:27:30;94456.53;;;7.85;100.00
13314;BME280;6725;48.112;11.604;2023-04-21T01:29:55;94457.31;;;7.86;100.00
13314;BME280;6725;48.112;11.604;2023-04-21T01:32:23;94457.72;;;7.84;100.00
13314;BME280;6725;48.112;11.604;2023-04-21T01:34:49;94465.88;;;7.84;100.00
13314;BME280;6725;48.112;11.604;2023-04-21T01:37:18;94467.41;;;7.85;100.00
13314;BME280;6725;48.112;11.604;2023-04-21T01:39:46;94477.88;;;7.83;100.00
13314;BME280;6725;48.112;11.604;2023-04-21T01:42:12;94480.59;;;7.83;100.00
13314;BME280;6725;48.112;11.604;2023-04-21T01:44:38;94484.50;;;7.82;100.00
13314;BME280;6725;48.112;11.604;2023-04-21T01:47:04;94496.91;;;7.83;100.00
13314;BME280;6725;48.112;11.604;2023-04-21T01:49:30;94503.19;;;7.80;100.00
13314;BME280;6725;48.112;11.604;2023-04-21T01:51:55;94507.06;;;7.79;100.00
13314;BME280;6725;48.112;11.604;2023-04-21T01:54:20;94502.41;;;7.80;100.00
13314;BME280;6725;48.112;11.604;2023-04-21T01:56:46;94502.81;;;7.78;100.00
13314;BME280;6725;48.112;11.604;2023-04-21T01:59:11;94502.44;;;7.76;100.00
13314;BME280;6725;48.112;11.604;2023-04-21T02:01:37;94504.34;;;7.79;100.00
13314;BME280;6725;48.112;11.604;2023-04-21T02:04:03;94501.69;;;7.76;100.00
13314;BME280;6725;48.112;11.604;2023-04-21T02:06:29;94511.00;;;7.75;100.00
13314;BME280;6725;48.112;11.604;2023-04-21T02:08:56;94514.13;;;7.73;100.00
13314;BME280;6725;48.112;11.604;2023-04-21T02:11:21;94518.84;;;7.69;100.00
13314;BME280;6725;48.112;11.604;2023-04-21T02:13:49;94513.50;;;7.62;100.00
13314;BME280;6725;48.112;11.604;2023-04-21T02:16:14;94499.53;;;7.60;100.00
13314;BME280;6725;48.112;11.604;2023-04-21T02:18:39;94495.63;;;7.61;100.00
13314;BME280;6725;48.112;11.604;2023-04-21T02:21:05;94489.06;;;7.59;100.00
13314;BME280;6725;48.112;11.604;2023-04-21T02:23:31;94473.56;;;7.56;100.00
13314;BME280;6725;48.112;11.604;2023-04-21T02:25:56;94463.50;;;7.56;100.00
13314;BME280;6725;48.112;11.604;2023-04-21T02:28:22;94441.38;;;7.54;100.00
13314;BME280;6725;48.112;11.604;2023-04-21T02:30:47;94434.47;;;7.50;100.00
13314;BME280;6725;48.112;11.604;2023-04-21T02:33:13;94421.66;;;7.50;100.00
13314;BME280;6725;48.112;11.604;2023-04-21T02:35:38;94417.78;;;7.51;100.00
13314;BME280;6725;48.112;11.604;2023-04-21T02:38:03;94406.91;;;7.51;100.00
13314;BME280;6725;48.112;11.604;2023-04-21T02:40:31;94399.50;;;7.52;100.00
13314;BME280;6725;48.112;11.604;2023-04-21T02:42:57;94385.94;;;7.52;100.00
13314;BME280;6725;48.112;11.604;2023-04-21T02:45:22;94377.03;;;7.51;100.00
13314;BME280;6725;48.112;11.604;2023-04-21T02:47:47;94375.16;;;7.45;100.00
13314;BME280;6725;48.112;11.604;2023-04-21T02:50:13;94361.63;;;7.41;100.00
13314;BME280;6725;48.112;11.604;2023-04-21T02:52:38;94351.09;;;7.47;100.00
13314;BME280;6725;48.112;11.604;2023-04-21T02:55:04;94339.84;;;7.45;100.00
13314;BME280;6725;48.112;11.604;2023-04-21T02:57:29;94348.72;;;7.49;100.00
13314;BME280;6725;48.112;11.604;2023-04-21T02:59:55;94347.91;;;7.52;100.00
13314;BME280;6725;48.112;11.604;2023-04-21T03:02:20;94356.84;;;7.52;100.00
13314;BME280;6725;48.112;11.604;2023-04-21T03:04:45;94358.34;;;7.53;100.00
13314;BME280;6725;48.112;11.604;2023-04-21T03:07:14;94350.59;;;7.55;100.00
13314;BME280;6725;48.112;11.604;2023-04-21T03:09:39;94349.41;;;7.56;100.00
13314;BME280;6725;48.112;11.604;2023-04-21T03:12:05;94344.38;;;7.55;100.00
13314;BME280;6725;48.112;11.604;2023-04-21T03:14:30;94344.56;;;7.41;100.00
13314;BME280;6725;48.112;11.604;2023-04-21T03:16:56;94347.78;;;7.32;100.00
13314;BME280;6725;48.112;11.604;2023-04-21T03:19:21;94336.97;;;7.29;100.00
13314;BME280;6725;48.112;11.604;2023-04-21T03:21:46;94322.94;;;7.34;100.00
13314;BME280;6725;48.112;11.604;2023-04-21T03:24:12;94312.84;;;7.34;100.00
13314;BME280;6725;48.112;11.604;2023-04-21T03:26:38;94348.59;;;7.29;100.00
13314;BME280;6725;48.112;11.604;2023-04-21T03:29:05;94328.03;;;7.28;100.00
13314;BME280;6725;48.112;11.604;2023-04-21T03:31:30;94313.75;;;7.24;100.00
13314;BME280;6725;48.112;11.604;2023-04-21T03:33:55;94296.41;;;7.18;100.00
13314;BME280;6725;48.112;11.604;2023-04-21T03:36:21;94231.38;;;7.08;100.00
13314;BME280;6725;48.112;11.604;2023-04-21T03:38:46;94211.00;;;7.23;100.00
13314;BME280;6725;48.112;11.604;2023-04-21T03:41:11;94205.25;;;7.17;100.00
13314;BME280;6725;48.112;11.604;2023-04-21T03:43:37;94198.09;;;7.04;100.00
13314;BME280;6725;48.112;11.604;2023-04-21T03:46:02;94192.19;;;7.09;100.00
13314;BME280;6725;48.112;11.604;2023-04-21T03:48:28;94182.94;;;7.06;100.00
13314;BME280;6725;48.112;11.604;2023-04-21T03:50:53;94177.59;;;6.99;100.00
13314;BME280;6725;48.112;11.604;2023-04-21T03:53:19;94169.84;;;7.01;100.00
13314;BME280;6725;48.112;11.604;2023-04-21T03:55:44;94169.03;;;7.04;100.00
13314;BME280;6725;48.112;11.604;2023-04-21T03:58:14;94162.16;;;6.96;100.00
13314;BME280;6725;48.112;11.604;2023-04-21T04:00:40;94161.38;;;6.96;100.00
13314;BME280;6725;48.112;11.604;2023-04-21T04:03:05;94152.47;;;6.95;100.00
13314;BME280;6725;48.112;11.604;2023-04-21T04:05:31;94145.50;;;6.94;100.00
13314;BME280;6725;48.112;11.604;2023-04-21T04:07:57;94139.78;;;6.88;100.00
13314;BME280;6725;48.112;11.604;2023-04-21T04:10:22;94130.56;;;6.82;100.00
13314;BME280;6725;48.112;11.604;2023-04-21T04:12:47;94129.91;;;6.75;100.00
13314;BME280;6725;48.112;11.604;2023-04-21T04:15:13;94121.72;;;6.78;100.00
13314;BME280;6725;48.112;11.604;2023-04-21T04:17:38;94131.75;;;6.81;100.00
13314;BME280;6725;48.112;11.604;2023-04-21T04:20:06;94127.22;;;6.71;100.00
13314;BME280;6725;48.112;11.604;2023-04-21T04:22:32;94110.63;;;6.69;100.00
13314;BME280;6725;48.112;11.604;2023-04-21T04:24:58;94102.78;;;6.75;100.00
13314;BME280;6725;48.112;11.604;2023-04-21T04:27:26;94096.53;;;6.78;100.00
13314;BME280;6725;48.112;11.604;2023-04-21T04:29:51;94099.41;;;6.67;100.00
13314;BME280;6725;48.112;11.604;2023-04-21T04:32:17;94084.50;;;6.79;100.00
13314;BME280;6725;48.112;11.604;2023-04-21T04:34:42;94075.66;;;6.75;100.00
13314;BME280;6725;48.112;11.604;2023-04-21T04:37:08;94065.25;;;6.70;100.00
13314;BME280;6725;48.112;11.604;2023-04-21T04:39:35;94066.28;;;6.79;100.00
13314;BME280;6725;48.112;11.604;2023-04-21T04:42:01;94058.78;;;6.87;100.00
13314;BME280;6725;48.112;11.604;2023-04-21T04:44:28;94065.34;;;6.89;100.00
13314;BME280;6725;48.112;11.604;2023-04-21T04:46:53;94067.66;;;6.91;100.00
13314;BME280;6725;48.112;11.604;2023-04-21T04:49:19;94059.47;;;6.95;100.00
13314;BME280;6725;48.112;11.604;2023-04-21T04:51:44;94070.66;;;6.97;100.00
13314;BME280;6725;48.112;11.604;2023-04-21T04:54:09;94067.66;;;6.91;100.00
13314;BME280;6725;48.112;11.604;2023-04-21T04:56:35;94065.91;;;7.04;100.00
13314;BME280;6725;48.112;11.604;2023-04-21T04:59:01;94068.91;;;7.10;100.00
13314;BME280;6725;48.112;11.604;2023-04-21T05:01:29;94068.81;;;7.13;100.00
13314;BME280;6725;48.112;11.604;2023-04-21T05:03:55;94071.91;;;7.15;100.00
13314;BME280;6725;48.112;11.604;2023-04-21T05:06:21;94074.97;;;7.17;100.00
13314;BME280;6725;48.112;11.604;2023-04-21T05:08:47;94092.06;;;7.14;100.00
13314;BME280;6725;48.112;11.604;2023-04-21T05:11:12;94110.72;;;7.12;100.00
13314;BME280;6725;48.112;11.604;2023-04-21T05:13:38;94121.94;;;7.14;100.00
13314;BME280;6725;48.112;11.604;2023-04-21T05:16:03;94128.44;;;7.20;100.00
13314;BME280;6725;48.112;11.604;2023-04-21T05:18:29;94137.28;;;7.24;100.00
13314;BME280;6725;48.112;11.604;2023-04-21T05:20:54;94156.19;;;7.31;100.00
13314;BME280;6725;48.112;11.604;2023-04-21T05:23:20;94165.41;;;7.37;100.00
13314;BME280;6725;48.112;11.604;2023-04-21T05:25:46;94186.31;;;7.40;100.00
13314;BME280;6725;48.112;11.604;2023-04-21T05:28:11;94190.84;;;7.47;100.00
13314;BME280;6725;48.112;11.604;2023-04-21T05:30:36;94215.59;;;7.52;100.00
13314;BME280;6725;48.112;11.604;2023-04-21T05:33:02;94234.94;;;7.54;100.00
13314;BME280;6725;48.112;11.604;2023-04-21T05:35:30;94278.41;;;7.54;100.00
13314;BME280;6725;48.112;11.604;2023-04-21T05:37:56;94320.31;;;7.57;100.00
13314;BME280;6725;48.112;11.604;2023-04-21T05:40:21;94343.78;;;7.70;100.00
13314;BME280;6725;48.112;11.604;2023-04-21T05:42:46;94363.59;;;7.67;100.00
13314;BME280;6725;48.112;11.604;2023-04-21T05:45:12;94384.53;;;7.70;100.00
13314;BME280;6725;48.112;11.604;2023-04-21T05:47:37;94399.69;;;7.94;100.00
13314;BME280;6725;48.112;11.604;2023-04-21T05:50:04;94437.03;;;7.90;100.00
13314;BME280;6725;48.112;11.604;2023-04-21T05:52:30;94457.81;;;8.04;100.00
13314;BME280;6725;48.112;11.604;2023-04-21T05:54:57;94474.75;;;8.15;100.00
13314;BME280;6725;48.112;11.604;2023-04-21T05:57:23;94507.28;;;8.25;100.00
13314;BME280;6725;48.112;11.604;2023-04-21T05:59:48;94531.00;;;8.51;100.00
13314;BME280;6725;48.112;11.604;2023-04-21T06:02:14;94567.19;;;9.01;100.00
13314;BME280;6725;48.112;11.604;2023-04-21T06:04:39;94619.88;;;9.37;100.00
13314;BME280;6725;48.112;11.604;2023-04-21T06:07:05;94656.59;;;9.98;100.00
13314;BME280;6725;48.112;11.604;2023-04-21T06:09:31;94705.44;;;11.14;100.00
13314;BME280;6725;48.112;11.604;2023-04-21T06:11:57;94775.34;;;12.02;100.00
13314;BME280;6725;48.112;11.604;2023-04-21T06:14:22;94838.09;;;12.73;100.00
13314;BME280;6725;48.112;11.604;2023-04-21T06:16:47;94868.91;;;13.38;100.00
13314;BME280;6725;48.112;11.604;2023-04-21T06:19:13;94871.03;;;14.00;100.00
13314;BME280;6725;48.112;11.604;2023-04-21T06:21:38;94877.31;;;14.50;100.00
13314;BME280;6725;48.112;11.604;2023-04-21T06:24:04;94876.34;;;14.32;100.00
13314;BME280;6725;48.112;11.604;2023-04-21T06:26:29;94884.03;;;14.49;100.00
13314;BME280;6725;48.112;11.604;2023-04-21T06:28:54;94880.16;;;14.84;100.00
13314;BME280;6725;48.112;11.604;2023-04-21T06:31:20;94878.91;;;15.44;100.00
13314;BME280;6725;48.112;11.604;2023-04-21T06:33:45;94882.81;;;16.29;100.00
13314;BME280;6725;48.112;11.604;2023-04-21T06:36:10;94869.41;;;16.80;100.00
13314;BME280;6725;48.112;11.604;2023-04-21T06:38:36;94869.03;;;17.90;100.00
13314;BME280;6725;48.112;11.604;2023-04-21T06:41:01;94874.75;;;18.46;100.00
13314;BME280;6725;48.112;11.604;2023-04-21T06:43:28;94874.97;;;19.22;100.00
13314;BME280;6725;48.112;11.604;2023-04-21T06:45:54;94877.94;;;19.80;100.00
13314;BME280;6725;48.112;11.604;2023-04-21T06:48:19;94879.84;;;20.12;100.00
13314;BME280;6725;48.112;11.604;2023-04-21T06:50:44;94884.47;;;19.53;100.00
13314;BME280;6725;48.112;11.604;2023-04-21T06:53:10;94882.53;;;19.21;100.00
13314;BME280;6725;48.112;11.604;2023-04-21T06:55:36;94882.28;;;18.45;100.00
13314;BME280;6725;48.112;11.604;2023-04-21T06:58:01;94883.63;;;17.81;100.00
13314;BME280;6725;48.112;11.604;2023-04-21T07:00:27;94878.59;;;16.37;100.00
13314;BME280;6725;48.112;11.604;2023-04-21T07:02:52;94879.81;;;15.29;100.00
13314;BME280;6725;48.112;11.604;2023-04-21T07:05:17;94888.41;;;14.84;100.00
13314;BME280;6725;48.112;11.604;2023-04-21T07:07:43;94898.88;;;14.39;100.00
13314;BME280;6725;48.112;11.604;2023-04-21T07:10:08;94890.56;;;13.48;100.00
13314;BME280;6725;48.112;11.604;2023-04-21T07:12:33;94890.53;;;13.77;100.00
13314;BME280;6725;48.112;11.604;2023-04-21T07:14:59;94890.53;;;13.77;100.00
13314;BME280;6725;48.112;11.604;2023-04-21T07:17:24;94881.47;;;13.92;100.00
13314;BME280;6725;48.112;11.604;2023-04-21T07:19:50;94882.72;;;14.29;100.00
13314;BME280;6725;48.112;11.604;2023-04-21T07:22:15;94876.88;;;14.14;100.00
13314;BME280;6725;48.112;11.604;2023-04-21T07:24:40;94880.53;;;13.13;100.00
13314;BME280;6725;48.112;11.604;2023-04-21T07:27:06;94881.00;;;13.81;100.00
13314;BME280;6725;48.112;11.604;2023-04-21T07:29:31;94883.00;;;14.93;100.00
13314;BME280;6725;48.112;11.604;2023-04-21T07:31:57;94868.53;;;15.48;100.00
13314;BME280;6725;48.112;11.604;2023-04-21T07:34:23;94882.19;;;15.52;100.00
13314;BME280;6725;48.112;11.604;2023-04-21T07:36:49;94874.19;;;14.98;100.00
13314;BME280;6725;48.112;11.604;2023-04-21T07:39:15;94882.53;;;15.07;100.00
13314;BME280;6725;48.112;11.604;2023-04-21T07:41:40;94868.91;;;15.59;100.00
13314;BME280;6725;48.112;11.604;2023-04-21T07:44:06;94877.50;;;15.61;100.00
13314;BME280;6725;48.112;11.604;2023-04-21T07:46:31;94883.56;;;14.88;100.00
13314;BME280;6725;48.112;11.604;2023-04-21T07:48:57;94886.28;;;15.47;100.00
13314;BME280;6725;48.112;11.604;2023-04-21T07:51:24;94883.56;;;15.99;100.00
13314;BME280;6725;48.112;11.604;2023-04-21T07:53:51;94892.94;;;16.32;100.00
13314;BME280;6725;48.112;11.604;2023-04-21T07:56:17;94889.88;;;16.30;100.00
13314;BME280;6725;48.112;11.604;2023-04-21T07:58:42;94881.41;;;16.56;100.00
13314;BME280;6725;48.112;11.604;2023-04-21T08:01:08;94895.66;;;16.02;100.00
13314;BME280;6725;48.112;11.604;2023-04-21T08:03:33;94880.56;;;17.43;100.00
13314;BME280;6725;48.112;11.604;2023-04-21T08:05:59;94883.88;;;18.19;100.00
13314;BME280;6725;48.112;11.604;2023-04-21T08:08:24;94870.88;;;17.93;100.00
13314;BME280;6725;48.112;11.604;2023-04-21T08:10:49;94883.47;;;18.95;100.00
13314;BME280;6725;48.112;11.604;2023-04-21T08:13:15;94883.41;;;19.51;100.00
13314;BME280;6725;48.112;11.604;2023-04-21T08:15:40;94886.41;;;20.00;100.00
13314;BME280;6725;48.112;11.604;2023-04-21T08:18:07;94879.53;;;21.37;100.00
13314;BME280;6725;48.112;11.604;2023-04-21T08:20:32;94880.25;;;21.52;92.32
13314;BME280;6725;48.112;11.604;2023-04-21T08:22:57;94890.03;;;20.93;91.04
13314;BME280;6725;48.112;11.604;2023-04-21T08:25:23;94890.22;;;20.75;95.88
13314;BME280;6725;48.112;11.604;2023-04-21T08:27:48;94885.06;;;20.68;95.33
13314;BME280;6725;48.112;11.604;2023-04-21T08:30:14;94886.06;;;22.40;83.04
13314;BME280;6725;48.112;11.604;2023-04-21T08:32:39;94883.47;;;21.11;85.81
13314;BME280;6725;48.112;11.604;2023-04-21T08:35:05;94886.50;;;19.53;97.08
13314;BME280;6725;48.112;11.604;2023-04-21T08:37:31;94883.28;;;19.69;100.00
13314;BME280;6725;48.112;11.604;2023-04-21T08:39:56;94886.00;;;19.78;100.00
13314;BME280;6725;48.112;11.604;2023-04-21T08:42:21;94879.91;;;18.94;100.00
13314;BME280;6725;48.112;11.604;2023-04-21T08:44:47;94881.28;;;18.07;100.00
13314;BME280;6725;48.112;11.604;2023-04-21T08:47:13;94897.84;;;17.08;100.00
13314;BME280;6725;48.112;11.604;2023-04-21T08:49:41;94883.19;;;17.56;100.00
13314;BME280;6725;48.112;11.604;2023-04-21T08:52:07;94885.19;;;17.46;100.00
13314;BME280;6725;48.112;11.604;2023-04-21T08:54:33;94878.84;;;17.28;100.00
13314;BME280;6725;48.112;11.604;2023-04-21T08:57:00;94877.50;;;17.59;100.00
13314;BME280;6725;48.112;11.604;2023-04-21T08:59:27;94874.31;;;18.80;100.00
13314;BME280;6725;48.112;11.604;2023-04-21T09:02:06;94869.78;;;21.07;100.00
13314;BME280;6725;48.112;11.604;2023-04-21T09:04:34;94869.78;;;21.07;100.00
13314;BME280;6725;48.112;11.604;2023-04-21T09:06:59;94865.84;;;22.19;87.36
13314;BME280;6725;48.112;11.604;2023-04-21T09:09:24;94865.06;;;22.44;85.96
13314;BME280;6725;48.112;11.604;2023-04-21T09:11:54;94868.94;;;20.23;91.82
13314;BME280;6725;48.112;11.604;2023-04-21T09:14:21;94864.03;;;20.18;100.00
13314;BME280;6725;48.112;11.604;2023-04-21T09:16:58;94870.84;;;19.65;100.00
13314;BME280;6725;48.112;11.604;2023-04-21T09:19:26;94851.97;;;19.92;100.00
13314;BME280;6725;48.112;11.604;2023-04-21T09:21:52;94864.81;;;19.66;100.00
13314;BME280;6725;48.112;11.604;2023-04-21T09:24:17;94866.97;;;19.00;100.00
13314;BME280;6725;48.112;11.604;2023-04-21T09:26:44;94860.84;;;19.67;100.00
13314;BME280;6725;48.112;11.604;2023-04-21T09:29:13;94863.78;;;19.16;100.00
13314;BME280;6725;48.112;11.604;2023-04-21T09:31:39;94861.66;;;19.11;100.00
13314;BME280;6725;48.112;11.604;2023-04-21T09:34:24;94858.06;;;22.23;93.71
13314;BME280;6725;48.112;11.604;2023-04-21T09:37:03;94858.59;;;20.09;98.99
13314;BME280;6725;48.112;11.604;2023-04-21T09:39:30;94856.47;;;21.31;91.45
13314;BME280;6725;48.112;11.604;2023-04-21T09:41:58;94862.88;;;21.37;87.64
13314;BME280;6725;48.112;11.604;2023-04-21T09:44:30;94859.13;;;19.70;100.00
13314;BME280;6725;48.112;11.604;2023-04-21T09:47:02;94856.88;;;21.04;95.10
13314;BME280;6725;48.112;11.604;2023-04-21T09:49:29;94859.53;;;20.06;91.92
13314;BME280;6725;48.112;11.604;2023-04-21T09:51:56;94859.19;;;20.13;93.26
13314;BME280;6725;48.112;11.604;2023-04-21T09:54:32;94854.31;;;21.61;87.50
13314;BME280;6725;48.112;11.604;2023-04-21T09:57:03;94849.94;;;22.20;80.54
13314;BME280;6725;48.112;11.604;2023-04-21T09:59:34;94854.91;;;19.74;95.34
13314;BME280;6725;48.112;11.604;2023-04-21T10:02:03;94862.34;;;20.35;93.83
13314;BME280;6725;48.112;11.604;2023-04-21T10:04:30;94857.63;;;22.05;86.98
13314;BME280;6725;48.112;11.604;2023-04-21T10:06:58;94855.25;;;20.49;91.42
13314;BME280;6725;48.112;11.604;2023-04-21T10:09:29;94843.53;;;21.68;93.15
13314;BME280;6725;48.112;11.604;2023-04-21T10:11:55;94845.34;;;21.31;84.04
13314;BME280;6725;48.112;11.604;2023-04-21T10:14:24;94850.84;;;21.66;85.08
13314;BME280;6725;48.112;11.604;2023-04-21T10:16:57;94845.81;;;20.75;96.68
13314;BME280;6725;48.112;11.604;2023-04-21T10:19:27;94842.84;;;20.93;94.31
13314;BME280;6725;48.112;11.604;2023-04-21T10:21:56;94842.78;;;22.13;84.55
13314;BME280;6725;48.112;11.604;2023-04-21T10:24:22;94834.41;;;21.22;93.40
13314;BME280;6725;48.112;11.604;2023-04-21T10:26:49;94829.50;;;22.28;87.58
13314;BME280;6725;48.112;11.604;2023-04-21T10:29:14;94835.06;;;20.97;94.81
13314;BME280;6725;48.112;11.604;2023-04-21T10:31:50;94827.00;;;22.30;95.93
13314;BME280;6725;48.112;11.604;2023-04-21T10:34:17;94826.94;;;21.74;92.82
13314;BME280;6725;48.112;11.604;2023-04-21T10:39:35;94826.38;;;21.90;93.16
13314;BME280;6725;48.112;11.604;2023-04-21T10:44:42;94828.25;;;22.29;87.46
13314;BME280;6725;48.112;11.604;2023-04-21T10:47:08;94830.59;;;22.62;86.65
13314;BME280;6725;48.112;11.604;2023-04-21T10:49:38;94820.78;;;22.15;89.79
13314;BME280;6725;48.112;11.604;2023-04-21T10:52:05;94817.66;;;22.33;89.99
13314;BME280;6725;48.112;11.604;2023-04-21T10:54:42;94821.31;;;21.48;97.83
13314;BME280;6725;48.112;11.604;2023-04-21T10:57:13;94814.41;;;20.35;100.00
13314;BME280;6725;48.112;11.604;2023-04-21T10:59:40;94803.66;;;21.71;99.64
13314;BME280;6725;48.112;11.604;2023-04-21T11:02:06;94805.09;;;21.87;99.55
13314;BME280;6725;48.112;11.604;2023-04-21T11:04:32;94806.84;;;20.06;100.00
13314;BME280;6725;48.112;11.604;2023-04-21T11:07:11;94794.06;;;20.23;100.00
13314;BME280;6725;48.112;11.604;2023-04-21T11:09:38;94793.47;;;21.43;100.00
13314;BME280;6725;48.112;11.604;2023-04-21T11:12:05;94793.53;;;22.25;100.00
13314;BME280;6725;48.112;11.604;2023-04-21T11:14:35;94797.00;;;22.14;99.41
13314;BME280;6725;48.112;11.604;2023-04-21T11:17:04;94790.16;;;22.41;93.49
13314;BME280;6725;48.112;11.604;2023-04-21T11:19:33;94792.34;;;22.63;89.58
13314;BME280;6725;48.112;11.604;2023-04-21T11:21:58;94787.78;;;22.60;90.82
13314;BME280;6725;48.112;11.604;2023-04-21T11:24:24;94783.69;;;21.27;97.99
13314;BME280;6725;48.112;11.604;2023-04-21T11:26:50;94786.59;;;20.98;100.00
13314;BME280;6725;48.112;11.604;2023-04-21T11:29:16;94780.91;;;21.27;100.00
13314;BME280;6725;48.112;11.604;2023-04-21T11:31:43;94781.38;;;21.46;100.00
13314;BME280;6725;48.112;11.604;2023-04-21T11:34:10;94784.38;;;21.02;100.00
13314;BME280;6725;48.112;11.604;2023-04-21T11:36:38;94776.31;;;21.24;100.00
13314;BME280;6725;48.112;11.604;2023-04-21T11:39:05;94796.50;;;19.48;100.00
13314;BME280;6725;48.112;11.604;2023-04-21T11:41:32;94778.44;;;19.15;100.00
13314;BME280;6725;48.112;11.604;2023-04-21T11:43:58;94786.75;;;19.53;100.00
13314;BME280;6725;48.112;11.604;2023-04-21T11:46:26;94787.22;;;18.90;100.00
13314;BME280;6725;48.112;11.604;2023-04-21T11:51:36;94791.88;;;18.84;100.00
13314;BME280;6725;48.112;11.604;2023-04-21T11:54:03;94784.00;;;18.35;100.00
13314;BME280;6725;48.112;11.604;2023-04-21T11:56:29;94768.25;;;18.09;100.00
13314;BME280;6725;48.112;11.604;2023-04-21T11:58:58;94765.50;;;18.09;100.00
13314;BME280;6725;48.112;11.604;2023-04-21T12:01:25;94790.00;;;17.74;100.00
13314;BME280;6725;48.112;11.604;2023-04-21T12:03:55;94774.03;;;17.78;100.00
13314;BME280;6725;48.112;11.604;2023-04-21T12:06:25;94782.84;;;17.59;100.00
13314;BME280;6725;48.112;11.604;2023-04-21T12:09:00;94776.06;;;17.69;100.00
13314;BME280;6725;48.112;11.604;2023-04-21T12:11:30;94784.97;;;18.14;100.00
13314;BME280;6725;48.112;11.604;2023-04-21T12:13:59;94792.53;;;18.05;100.00
13314;BME280;6725;48.112;11.604;2023-04-21T12:16:26;94774.97;;;18.26;100.00
13314;BME280;6725;48.112;11.604;2023-04-21T12:18:53;94779.56;;;18.29;100.00
13314;BME280;6725;48.112;11.604;2023-04-21T12:21:18;94778.97;;;18.57;100.00
13314;BME280;6725;48.112;11.604;2023-04-21T12:23:43;94774.94;;;17.93;100.00
13314;BME280;6725;48.112;11.604;2023-04-21T12:26:09;94777.16;;;17.71;100.00
13314;BME280;6725;48.112;11.604;2023-04-21T12:28:36;94781.41;;;18.32;100.00
13314;BME280;6725;48.112;11.604;2023-04-21T12:31:02;94778.38;;;18.21;100.00
13314;BME280;6725;48.112;11.604;2023-04-21T12:33:27;94782.09;;;18.09;100.00
13314;BME280;6725;48.112;11.604;2023-04-21T12:35:52;94782.91;;;17.91;100.00
13314;BME280;6725;48.112;11.604;2023-04-21T12:38:18;94786.00;;;17.93;100.00
13314;BME280;6725;48.112;11.604;2023-04-21T12:40:43;94787.38;;;17.80;100.00
13314;BME280;6725;48.112;11.604;2023-04-21T12:43:08;94777.78;;;18.17;100.00
13314;BME280;6725;48.112;11.604;2023-04-21T12:45:34;94777.84;;;17.90;100.00
13314;BME280;6725;48.112;11.604;2023-04-21T12:48:00;94785.38;;;17.89;100.00
13314;BME280;6725;48.112;11.604;2023-04-21T12:50:25;94767.66;;;18.14;100.00
13314;BME280;6725;48.112;11.604;2023-04-21T12:52:51;94772.94;;;18.35;100.00
13314;BME280;6725;48.112;11.604;2023-04-21T12:55:19;94774.69;;;18.15;100.00
13314;BME280;6725;48.112;11.604;2023-04-21T12:57:45;94783.66;;;18.01;100.00
13314;BME280;6725;48.112;11.604;2023-04-21T13:00:11;94784.03;;;17.85;100.00
13314;BME280;6725;48.112;11.604;2023-04-21T13:02:39;94771.63;;;18.13;100.00